sensor_id;sensor_type;location;lat;lon;timestamp;temperature;humidity
21744;DHT22;11034;48.556;9.342;2022-09-09T00:01:03;15.60;99.90
21744;DHT22;11034;48.556;9.342;2022-09-09T00:03:40;15.60;99.90
21744;DHT22;11034;48.556;9.342;2022-09-09T00:06:19;15.60;99.90
21744;DHT22;11034;48.556;9.342;2022-09-09T00:09:00;15.60;99.90
21744;DHT22;11034;48.556;9.342;2022-09-09T00:11:33;15.60;99.90
21744;DHT22;11034;48.556;9.342;2022-09-09T00:14:13;15.60;99.90
21744;DHT22;11034;48.556;9.342;2022-09-09T00:16:49;15.70;99.90
21744;DHT22;11034;48.556;9.342;2022-09-09T00:19:23;15.70;99.90
21744;DHT22;11034;48.556;9.342;2022-09-09T00:21:59;15.60;99.90
21744;DHT22;11034;48.556;9.342;2022-09-09T00:24:36;15.60;99.90
21744;DHT22;11034;48.556;9.342;2022-09-09T00:27:09;15.50;99.90
21744;DHT22;11034;48.556;9.342;2022-09-09T00:29:43;15.50;99.90
21744;DHT22;11034;48.556;9.342;2022-09-09T00:32:15;15.60;99.90
21744;DHT22;11034;48.556;9.342;2022-09-09T00:34:52;15.60;99.90
21744;DHT22;11034;48.556;9.342;2022-09-09T00:37:22;15.70;99.90
21744;DHT22;11034;48.556;9.342;2022-09-09T00:39:55;15.80;99.90
21744;DHT22;11034;48.556;9.342;2022-09-09T00:42:33;15.90;99.90
21744;DHT22;11034;48.556;9.342;2022-09-09T00:45:15;16.00;99.90
21744;DHT22;11034;48.556;9.342;2022-09-09T00:47:50;16.10;99.90
21744;DHT22;11034;48.556;9.342;2022-09-09T00:50:44;16.20;99.90
21744;DHT22;11034;48.556;9.342;2022-09-09T00:53:26;16.20;99.90
21744;DHT22;11034;48.556;9.342;2022-09-09T00:56:07;16.20;99.90
21744;DHT22;11034;48.556;9.342;2022-09-09T00:58:37;16.10;99.90
21744;DHT22;11034;48.556;9.342;2022-09-09T01:01:08;16.10;99.90
21744;DHT22;11034;48.556;9.342;2022-09-09T01:03:42;16.10;99.90
21744;DHT22;11034;48.556;9.342;2022-09-09T01:06:22;16.20;99.90
21744;DHT22;11034;48.556;9.342;2022-09-09T01:09:06;16.20;99.90
21744;DHT22;11034;48.556;9.342;2022-09-09T01:11:47;16.20;99.90
21744;DHT22;11034;48.556;9.342;2022-09-09T01:14:32;16.10;99.90
21744;DHT22;11034;48.556;9.342;2022-09-09T01:17:07;16.00;99.90
21744;DHT22;11034;48.556;9.342;2022-09-09T01:19:45;16.00;99.90
21744;DHT22;11034;48.556;9.342;2022-09-09T01:22:21;15.90;99.90
21744;DHT22;11034;48.556;9.342;2022-09-09T01:25:19;15.90;99.90
21744;DHT22;11034;48.556;9.342;2022-09-09T01:27:55;15.80;99.90
21744;DHT22;11034;48.556;9.342;2022-09-09T01:30:24;15.80;99.90
21744;DHT22;11034;48.556;9.342;2022-09-09T01:32:55;15.70;99.90
21744;DHT22;11034;48.556;9.342;2022-09-09T01:35:36;15.60;99.90
21744;DHT22;11034;48.556;9.342;2022-09-09T01:38:06;15.50;99.90
21744;DHT22;11034;48.556;9.342;2022-09-09T01:40:34;15.40;99.90
21744;DHT22;11034;48.556;9.342;2022-09-09T01:43:04;15.30;99.90
21744;DHT22;11034;48.556;9.342;2022-09-09T01:45:33;15.30;99.90
21744;DHT22;11034;48.556;9.342;2022-09-09T01:48:02;15.20;99.90
21744;DHT22;11034;48.556;9.342;2022-09-09T01:50:30;15.00;99.90
21744;DHT22;11034;48.556;9.342;2022-09-09T01:53:01;15.00;99.90
21744;DHT22;11034;48.556;9.342;2022-09-09T01:55:32;14.80;99.90
21744;DHT22;11034;48.556;9.342;2022-09-09T01:58:13;14.70;99.90
21744;DHT22;11034;48.556;9.342;2022-09-09T02:00:53;14.60;99.90
21744;DHT22;11034;48.556;9.342;2022-09-09T02:03:26;14.60;99.90
21744;DHT22;11034;48.556;9.342;2022-09-09T02:06:00;14.60;99.90
21744;DHT22;11034;48.556;9.342;2022-09-09T02:08:36;14.60;99.90
21744;DHT22;11034;48.556;9.342;2022-09-09T02:11:11;14.50;99.90
21744;DHT22;11034;48.556;9.342;2022-09-09T02:13:41;14.50;99.90
21744;DHT22;11034;48.556;9.342;2022-09-09T02:16:13;14.60;99.90
21744;DHT22;11034;48.556;9.342;2022-09-09T02:18:45;14.50;99.90
21744;DHT22;11034;48.556;9.342;2022-09-09T02:21:15;14.40;99.90
21744;DHT22;11034;48.556;9.342;2022-09-09T02:23:46;14.30;99.90
21744;DHT22;11034;48.556;9.342;2022-09-09T02:26:17;14.20;99.90
21744;DHT22;11034;48.556;9.342;2022-09-09T02:28:51;14.10;99.90
21744;DHT22;11034;48.556;9.342;2022-09-09T02:31:22;14.00;99.90
21744;DHT22;11034;48.556;9.342;2022-09-09T02:33:55;13.90;99.90
21744;DHT22;11034;48.556;9.342;2022-09-09T02:36:28;13.80;99.90
21744;DHT22;11034;48.556;9.342;2022-09-09T02:38:57;13.80;99.90
21744;DHT22;11034;48.556;9.342;2022-09-09T02:41:30;13.80;99.90
21744;DHT22;11034;48.556;9.342;2022-09-09T02:44:00;13.80;99.90
21744;DHT22;11034;48.556;9.342;2022-09-09T02:46:40;13.80;99.90
21744;DHT22;11034;48.556;9.342;2022-09-09T02:49:19;13.90;99.90
21744;DHT22;11034;48.556;9.342;2022-09-09T02:51:54;13.90;99.90
21744;DHT22;11034;48.556;9.342;2022-09-09T02:54:32;14.10;99.90
21744;DHT22;11034;48.556;9.342;2022-09-09T02:57:05;14.20;99.90
21744;DHT22;11034;48.556;9.342;2022-09-09T02:59:38;14.40;99.90
21744;DHT22;11034;48.556;9.342;2022-09-09T03:02:08;14.50;99.90
21744;DHT22;11034;48.556;9.342;2022-09-09T03:04:40;14.50;99.90
21744;DHT22;11034;48.556;9.342;2022-09-09T03:07:12;14.50;99.90
21744;DHT22;11034;48.556;9.342;2022-09-09T03:09:47;14.50;99.90
21744;DHT22;11034;48.556;9.342;2022-09-09T03:12:21;14.50;99.90
21744;DHT22;11034;48.556;9.342;2022-09-09T03:14:52;14.50;99.90
21744;DHT22;11034;48.556;9.342;2022-09-09T03:17:20;14.50;99.90
21744;DHT22;11034;48.556;9.342;2022-09-09T03:19:48;14.50;99.90
21744;DHT22;11034;48.556;9.342;2022-09-09T03:22:17;14.50;99.90
21744;DHT22;11034;48.556;9.342;2022-09-09T03:24:46;14.50;99.90
21744;DHT22;11034;48.556;9.342;2022-09-09T03:27:16;14.50;99.90
21744;DHT22;11034;48.556;9.342;2022-09-09T03:29:49;14.50;99.90
21744;DHT22;11034;48.556;9.342;2022-09-09T03:32:19;14.60;99.90
21744;DHT22;11034;48.556;9.342;2022-09-09T03:34:49;14.60;99.90
21744;DHT22;11034;48.556;9.342;2022-09-09T03:37:17;14.70;99.90
21744;DHT22;11034;48.556;9.342;2022-09-09T03:39:45;14.80;99.90
21744;DHT22;11034;48.556;9.342;2022-09-09T03:42:16;14.90;99.90
21744;DHT22;11034;48.556;9.342;2022-09-09T03:44:45;14.90;99.90
21744;DHT22;11034;48.556;9.342;2022-09-09T03:47:21;15.00;99.90
21744;DHT22;11034;48.556;9.342;2022-09-09T03:49:49;15.10;99.90
21744;DHT22;11034;48.556;9.342;2022-09-09T03:52:20;15.10;99.90
21744;DHT22;11034;48.556;9.342;2022-09-09T03:54:51;15.10;99.90
21744;DHT22;11034;48.556;9.342;2022-09-09T03:57:27;15.10;99.90
21744;DHT22;11034;48.556;9.342;2022-09-09T04:00:02;15.00;99.90
21744;DHT22;11034;48.556;9.342;2022-09-09T04:02:35;14.80;99.90
21744;DHT22;11034;48.556;9.342;2022-09-09T04:05:07;14.80;99.90
21744;DHT22;11034;48.556;9.342;2022-09-09T04:07:38;14.80;99.90
21744;DHT22;11034;48.556;9.342;2022-09-09T04:10:10;14.90;99.90
21744;DHT22;11034;48.556;9.342;2022-09-09T04:12:40;14.90;99.90
21744;DHT22;11034;48.556;9.342;2022-09-09T04:15:17;14.90;99.90
21744;DHT22;11034;48.556;9.342;2022-09-09T04:17:47;14.90;99.90
21744;DHT22;11034;48.556;9.342;2022-09-09T04:20:15;14.90;99.90
21744;DHT22;11034;48.556;9.342;2022-09-09T04:22:43;14.90;99.90
21744;DHT22;11034;48.556;9.342;2022-09-09T04:25:13;14.90;99.90
21744;DHT22;11034;48.556;9.342;2022-09-09T04:27:45;14.90;99.90
21744;DHT22;11034;48.556;9.342;2022-09-09T04:30:21;14.90;99.90
21744;DHT22;11034;48.556;9.342;2022-09-09T04:32:52;14.80;99.90
21744;DHT22;11034;48.556;9.342;2022-09-09T04:35:20;14.80;99.90
21744;DHT22;11034;48.556;9.342;2022-09-09T04:37:53;14.80;99.90
21744;DHT22;11034;48.556;9.342;2022-09-09T04:40:20;14.70;99.90
21744;DHT22;11034;48.556;9.342;2022-09-09T04:42:48;14.60;99.90
21744;DHT22;11034;48.556;9.342;2022-09-09T04:45:17;14.50;99.90
21744;DHT22;11034;48.556;9.342;2022-09-09T04:47:45;14.50;99.90
21744;DHT22;11034;48.556;9.342;2022-09-09T04:50:15;14.50;99.90
21744;DHT22;11034;48.556;9.342;2022-09-09T04:52:43;14.40;99.90
21744;DHT22;11034;48.556;9.342;2022-09-09T04:55:12;14.40;99.90
21744;DHT22;11034;48.556;9.342;2022-09-09T04:57:40;14.50;99.90
21744;DHT22;11034;48.556;9.342;2022-09-09T05:00:10;14.50;99.90
21744;DHT22;11034;48.556;9.342;2022-09-09T05:02:38;14.50;99.90
21744;DHT22;11034;48.556;9.342;2022-09-09T05:05:07;14.60;99.90
21744;DHT22;11034;48.556;9.342;2022-09-09T05:07:36;14.60;99.90
21744;DHT22;11034;48.556;9.342;2022-09-09T05:10:05;14.70;99.90
21744;DHT22;11034;48.556;9.342;2022-09-09T05:12:33;14.70;99.90
21744;DHT22;11034;48.556;9.342;2022-09-09T05:15:01;14.70;99.90
21744;DHT22;11034;48.556;9.342;2022-09-09T05:17:29;14.60;99.90
21744;DHT22;11034;48.556;9.342;2022-09-09T05:19:57;14.50;99.90
21744;DHT22;11034;48.556;9.342;2022-09-09T05:22:25;14.50;99.90
21744;DHT22;11034;48.556;9.342;2022-09-09T05:24:54;14.50;99.90
21744;DHT22;11034;48.556;9.342;2022-09-09T05:27:22;14.60;99.90
21744;DHT22;11034;48.556;9.342;2022-09-09T05:29:50;14.70;99.90
21744;DHT22;11034;48.556;9.342;2022-09-09T05:32:19;14.80;99.90
21744;DHT22;11034;48.556;9.342;2022-09-09T05:34:48;15.00;99.90
21744;DHT22;11034;48.556;9.342;2022-09-09T05:37:16;15.20;99.90
21744;DHT22;11034;48.556;9.342;2022-09-09T05:39:44;15.30;99.90
21744;DHT22;11034;48.556;9.342;2022-09-09T05:42:14;15.40;99.90
21744;DHT22;11034;48.556;9.342;2022-09-09T05:44:42;15.50;99.90
21744;DHT22;11034;48.556;9.342;2022-09-09T05:47:11;15.50;99.90
21744;DHT22;11034;48.556;9.342;2022-09-09T05:49:39;15.50;99.90
21744;DHT22;11034;48.556;9.342;2022-09-09T05:52:07;15.60;99.90
21744;DHT22;11034;48.556;9.342;2022-09-09T05:54:36;15.70;99.90
21744;DHT22;11034;48.556;9.342;2022-09-09T05:57:05;15.70;99.90
21744;DHT22;11034;48.556;9.342;2022-09-09T05:59:35;15.60;99.90
21744;DHT22;11034;48.556;9.342;2022-09-09T06:02:03;15.60;99.90
21744;DHT22;11034;48.556;9.342;2022-09-09T06:04:31;15.60;99.90
21744;DHT22;11034;48.556;9.342;2022-09-09T06:07:00;15.60;99.90
21744;DHT22;11034;48.556;9.342;2022-09-09T06:09:28;15.70;99.90
21744;DHT22;11034;48.556;9.342;2022-09-09T06:11:57;15.70;99.90
21744;DHT22;11034;48.556;9.342;2022-09-09T06:14:25;15.70;99.90
21744;DHT22;11034;48.556;9.342;2022-09-09T06:16:55;15.90;99.90
21744;DHT22;11034;48.556;9.342;2022-09-09T06:19:23;16.10;99.90
21744;DHT22;11034;48.556;9.342;2022-09-09T06:21:53;16.40;99.90
21744;DHT22;11034;48.556;9.342;2022-09-09T06:24:21;16.90;99.90
21744;DHT22;11034;48.556;9.342;2022-09-09T06:26:49;17.40;99.90
21744;DHT22;11034;48.556;9.342;2022-09-09T06:29:17;17.60;99.90
21744;DHT22;11034;48.556;9.342;2022-09-09T06:31:45;17.40;99.90
21744;DHT22;11034;48.556;9.342;2022-09-09T06:34:15;17.30;99.90
21744;DHT22;11034;48.556;9.342;2022-09-09T06:36:43;17.30;99.90
21744;DHT22;11034;48.556;9.342;2022-09-09T06:39:12;17.60;99.90
21744;DHT22;11034;48.556;9.342;2022-09-09T06:41:42;17.70;99.90
21744;DHT22;11034;48.556;9.342;2022-09-09T06:44:10;17.80;99.90
21744;DHT22;11034;48.556;9.342;2022-09-09T06:46:39;17.80;99.90
21744;DHT22;11034;48.556;9.342;2022-09-09T06:49:09;17.60;99.90
21744;DHT22;11034;48.556;9.342;2022-09-09T06:51:38;17.80;99.90
21744;DHT22;11034;48.556;9.342;2022-09-09T06:54:10;18.20;99.90
21744;DHT22;11034;48.556;9.342;2022-09-09T06:56:40;18.50;99.90
21744;DHT22;11034;48.556;9.342;2022-09-09T06:59:09;18.70;99.90
21744;DHT22;11034;48.556;9.342;2022-09-09T07:01:40;18.90;99.90
21744;DHT22;11034;48.556;9.342;2022-09-09T07:04:08;19.30;99.90
21744;DHT22;11034;48.556;9.342;2022-09-09T07:06:40;19.60;99.90
21744;DHT22;11034;48.556;9.342;2022-09-09T07:09:12;19.50;99.90
21744;DHT22;11034;48.556;9.342;2022-09-09T07:11:42;19.00;99.90
21744;DHT22;11034;48.556;9.342;2022-09-09T07:14:11;18.40;99.90
21744;DHT22;11034;48.556;9.342;2022-09-09T07:16:40;18.30;99.90
21744;DHT22;11034;48.556;9.342;2022-09-09T07:19:09;18.20;99.90
21744;DHT22;11034;48.556;9.342;2022-09-09T07:21:39;18.00;99.90
21744;DHT22;11034;48.556;9.342;2022-09-09T07:24:11;17.80;99.90
21744;DHT22;11034;48.556;9.342;2022-09-09T07:26:40;17.60;99.90
21744;DHT22;11034;48.556;9.342;2022-09-09T07:29:08;17.70;99.90
21744;DHT22;11034;48.556;9.342;2022-09-09T07:31:38;18.20;99.90
21744;DHT22;11034;48.556;9.342;2022-09-09T07:34:09;19.10;99.90
21744;DHT22;11034;48.556;9.342;2022-09-09T07:36:39;19.80;99.90
21744;DHT22;11034;48.556;9.342;2022-09-09T07:39:10;20.10;99.90
21744;DHT22;11034;48.556;9.342;2022-09-09T07:41:41;20.00;99.90
21744;DHT22;11034;48.556;9.342;2022-09-09T07:44:11;19.90;99.90
21744;DHT22;11034;48.556;9.342;2022-09-09T07:46:40;19.90;99.90
21744;DHT22;11034;48.556;9.342;2022-09-09T07:49:09;19.60;99.90
21744;DHT22;11034;48.556;9.342;2022-09-09T07:51:40;19.20;99.90
21744;DHT22;11034;48.556;9.342;2022-09-09T07:54:10;19.30;99.90
21744;DHT22;11034;48.556;9.342;2022-09-09T07:56:41;19.30;99.90
21744;DHT22;11034;48.556;9.342;2022-09-09T07:59:09;19.60;99.90
21744;DHT22;11034;48.556;9.342;2022-09-09T08:01:40;19.70;99.90
21744;DHT22;11034;48.556;9.342;2022-09-09T08:04:10;20.00;99.90
21744;DHT22;11034;48.556;9.342;2022-09-09T08:06:45;20.00;99.90
21744;DHT22;11034;48.556;9.342;2022-09-09T08:09:14;19.90;99.90
21744;DHT22;11034;48.556;9.342;2022-09-09T08:11:43;19.90;99.90
21744;DHT22;11034;48.556;9.342;2022-09-09T08:14:11;19.80;99.90
21744;DHT22;11034;48.556;9.342;2022-09-09T08:16:41;19.70;99.90
21744;DHT22;11034;48.556;9.342;2022-09-09T08:19:09;19.90;99.90
21744;DHT22;11034;48.556;9.342;2022-09-09T08:21:39;19.70;99.90
21744;DHT22;11034;48.556;9.342;2022-09-09T08:24:10;19.40;99.90
21744;DHT22;11034;48.556;9.342;2022-09-09T08:26:40;19.00;99.90
21744;DHT22;11034;48.556;9.342;2022-09-09T08:29:10;18.80;99.90
21744;DHT22;11034;48.556;9.342;2022-09-09T08:31:40;18.90;99.90
21744;DHT22;11034;48.556;9.342;2022-09-09T08:34:09;18.90;99.90
21744;DHT22;11034;48.556;9.342;2022-09-09T08:36:38;19.10;99.90
21744;DHT22;11034;48.556;9.342;2022-09-09T08:39:09;19.20;99.90
21744;DHT22;11034;48.556;9.342;2022-09-09T08:44:46;19.20;99.90
21744;DHT22;11034;48.556;9.342;2022-09-09T08:47:24;19.30;99.90
21744;DHT22;11034;48.556;9.342;2022-09-09T08:50:11;19.50;99.90
21744;DHT22;11034;48.556;9.342;2022-09-09T08:52:49;19.50;99.90
21744;DHT22;11034;48.556;9.342;2022-09-09T08:55:28;19.60;99.90
21744;DHT22;11034;48.556;9.342;2022-09-09T08:57:59;19.80;99.90
21744;DHT22;11034;48.556;9.342;2022-09-09T09:00:34;19.90;99.90
21744;DHT22;11034;48.556;9.342;2022-09-09T09:03:18;19.90;99.90
21744;DHT22;11034;48.556;9.342;2022-09-09T09:05:57;19.80;99.90
21744;DHT22;11034;48.556;9.342;2022-09-09T09:08:36;19.80;99.90
21744;DHT22;11034;48.556;9.342;2022-09-09T09:11:09;20.00;99.90
21744;DHT22;11034;48.556;9.342;2022-09-09T09:13:42;20.40;99.90
21744;DHT22;11034;48.556;9.342;2022-09-09T09:16:19;20.60;99.90
21744;DHT22;11034;48.556;9.342;2022-09-09T09:18:49;20.50;99.90
21744;DHT22;11034;48.556;9.342;2022-09-09T09:21:23;21.00;99.90
21744;DHT22;11034;48.556;9.342;2022-09-09T09:23:59;21.00;99.90
21744;DHT22;11034;48.556;9.342;2022-09-09T09:26:32;21.10;99.90
21744;DHT22;11034;48.556;9.342;2022-09-09T09:29:08;20.80;99.90
21744;DHT22;11034;48.556;9.342;2022-09-09T09:31:38;20.70;99.90
21744;DHT22;11034;48.556;9.342;2022-09-09T09:34:08;20.80;99.90
21744;DHT22;11034;48.556;9.342;2022-09-09T09:36:43;20.70;99.90
21744;DHT22;11034;48.556;9.342;2022-09-09T09:39:24;20.50;99.90
21744;DHT22;11034;48.556;9.342;2022-09-09T09:42:15;20.20;99.90
21744;DHT22;11034;48.556;9.342;2022-09-09T09:44:49;20.00;99.90
21744;DHT22;11034;48.556;9.342;2022-09-09T09:47:21;19.90;99.90
21744;DHT22;11034;48.556;9.342;2022-09-09T09:49:53;19.70;99.90
21744;DHT22;11034;48.556;9.342;2022-09-09T09:52:28;20.00;99.90
21744;DHT22;11034;48.556;9.342;2022-09-09T09:54:58;20.20;99.90
21744;DHT22;11034;48.556;9.342;2022-09-09T09:57:34;20.30;99.90
21744;DHT22;11034;48.556;9.342;2022-09-09T10:00:11;20.40;99.90
21744;DHT22;11034;48.556;9.342;2022-09-09T10:02:44;20.50;99.90
21744;DHT22;11034;48.556;9.342;2022-09-09T10:05:15;20.30;99.90
21744;DHT22;11034;48.556;9.342;2022-09-09T10:07:43;20.00;99.90
21744;DHT22;11034;48.556;9.342;2022-09-09T10:10:20;20.30;99.90
21744;DHT22;11034;48.556;9.342;2022-09-09T10:13:02;20.60;99.90
21744;DHT22;11034;48.556;9.342;2022-09-09T10:15:41;20.80;99.90
21744;DHT22;11034;48.556;9.342;2022-09-09T10:18:34;20.80;99.90
21744;DHT22;11034;48.556;9.342;2022-09-09T10:21:20;21.00;99.90
21744;DHT22;11034;48.556;9.342;2022-09-09T10:24:12;20.70;99.90
21744;DHT22;11034;48.556;9.342;2022-09-09T10:26:49;20.60;99.90
21744;DHT22;11034;48.556;9.342;2022-09-09T10:29:50;20.50;99.90
21744;DHT22;11034;48.556;9.342;2022-09-09T10:32:40;20.90;99.90
21744;DHT22;11034;48.556;9.342;2022-09-09T10:35:25;21.20;99.90
21744;DHT22;11034;48.556;9.342;2022-09-09T10:38:12;21.10;99.90
21744;DHT22;11034;48.556;9.342;2022-09-09T10:40:48;21.20;99.90
21744;DHT22;11034;48.556;9.342;2022-09-09T10:43:29;21.20;99.90
21744;DHT22;11034;48.556;9.342;2022-09-09T10:46:04;21.20;99.90
21744;DHT22;11034;48.556;9.342;2022-09-09T10:48:47;21.00;99.90
21744;DHT22;11034;48.556;9.342;2022-09-09T10:51:24;20.70;99.90
21744;DHT22;11034;48.556;9.342;2022-09-09T10:54:09;20.60;99.90
21744;DHT22;11034;48.556;9.342;2022-09-09T10:56:40;20.90;99.90
21744;DHT22;11034;48.556;9.342;2022-09-09T10:59:13;21.00;99.90
21744;DHT22;11034;48.556;9.342;2022-09-09T11:01:50;21.00;99.90
21744;DHT22;11034;48.556;9.342;2022-09-09T11:04:23;20.80;99.90
21744;DHT22;11034;48.556;9.342;2022-09-09T11:06:57;21.10;99.90
21744;DHT22;11034;48.556;9.342;2022-09-09T11:09:39;21.20;99.90
21744;DHT22;11034;48.556;9.342;2022-09-09T11:12:13;21.30;99.90
21744;DHT22;11034;48.556;9.342;2022-09-09T11:14:58;21.30;99.90
21744;DHT22;11034;48.556;9.342;2022-09-09T11:17:39;21.20;99.90
21744;DHT22;11034;48.556;9.342;2022-09-09T11:20:13;21.30;99.90
21744;DHT22;11034;48.556;9.342;2022-09-09T11:22:50;21.40;99.90
21744;DHT22;11034;48.556;9.342;2022-09-09T11:25:26;21.40;99.90
21744;DHT22;11034;48.556;9.342;2022-09-09T11:28:11;21.70;99.90
21744;DHT22;11034;48.556;9.342;2022-09-09T11:30:47;22.00;99.90
21744;DHT22;11034;48.556;9.342;2022-09-09T11:33:42;22.20;99.90
21744;DHT22;11034;48.556;9.342;2022-09-09T11:39:36;22.10;99.90
21744;DHT22;11034;48.556;9.342;2022-09-09T11:42:16;21.90;99.90
21744;DHT22;11034;48.556;9.342;2022-09-09T11:44:45;22.00;99.90
21744;DHT22;11034;48.556;9.342;2022-09-09T11:47:25;21.40;99.90
21744;DHT22;11034;48.556;9.342;2022-09-09T11:50:10;20.80;99.90
21744;DHT22;11034;48.556;9.342;2022-09-09T11:52:42;20.40;99.90
21744;DHT22;11034;48.556;9.342;2022-09-09T11:55:25;20.20;99.90
21744;DHT22;11034;48.556;9.342;2022-09-09T11:57:58;20.20;99.90
21744;DHT22;11034;48.556;9.342;2022-09-09T12:00:35;20.00;99.90
21744;DHT22;11034;48.556;9.342;2022-09-09T12:03:08;20.30;99.90
21744;DHT22;11034;48.556;9.342;2022-09-09T12:05:58;20.40;99.90
21744;DHT22;11034;48.556;9.342;2022-09-09T12:08:28;20.90;99.90
21744;DHT22;11034;48.556;9.342;2022-09-09T12:10:57;21.20;99.90
21744;DHT22;11034;48.556;9.342;2022-09-09T12:13:27;21.20;99.90
21744;DHT22;11034;48.556;9.342;2022-09-09T12:15:59;21.20;99.90
21744;DHT22;11034;48.556;9.342;2022-09-09T12:18:33;21.00;99.90
21744;DHT22;11034;48.556;9.342;2022-09-09T12:21:07;20.90;99.90
21744;DHT22;11034;48.556;9.342;2022-09-09T12:23:44;20.80;99.90
21744;DHT22;11034;48.556;9.342;2022-09-09T12:29:18;20.80;99.90
21744;DHT22;11034;48.556;9.342;2022-09-09T12:31:54;20.70;99.90
21744;DHT22;11034;48.556;9.342;2022-09-09T12:34:33;20.60;99.90
21744;DHT22;11034;48.556;9.342;2022-09-09T12:37:11;20.70;99.90
21744;DHT22;11034;48.556;9.342;2022-09-09T12:39:45;20.70;99.90
21744;DHT22;11034;48.556;9.342;2022-09-09T12:42:19;20.60;99.90
21744;DHT22;11034;48.556;9.342;2022-09-09T12:44:55;20.60;99.90
21744;DHT22;11034;48.556;9.342;2022-09-09T12:47:31;20.60;99.90
21744;DHT22;11034;48.556;9.342;2022-09-09T12:50:05;20.60;99.90
21744;DHT22;11034;48.556;9.342;2022-09-09T12:52:47;20.70;99.90
21744;DHT22;11034;48.556;9.342;2022-09-09T12:55:19;20.70;99.90
21744;DHT22;11034;48.556;9.342;2022-09-09T12:57:49;20.50;99.90
21744;DHT22;11034;48.556;9.342;2022-09-09T13:00:20;20.60;99.90
21744;DHT22;11034;48.556;9.342;2022-09-09T13:02:53;20.50;99.90
21744;DHT22;11034;48.556;9.342;2022-09-09T13:05:25;20.80;99.90
21744;DHT22;11034;48.556;9.342;2022-09-09T13:08:03;21.00;99.90
21744;DHT22;11034;48.556;9.342;2022-09-09T13:10:34;21.30;99.90
21744;DHT22;11034;48.556;9.342;2022-09-09T13:13:22;21.20;99.90
21744;DHT22;11034;48.556;9.342;2022-09-09T13:15:52;21.20;99.90
21744;DHT22;11034;48.556;9.342;2022-09-09T13:18:23;21.30;99.90
21744;DHT22;11034;48.556;9.342;2022-09-09T13:20:54;21.50;99.90
21744;DHT22;11034;48.556;9.342;2022-09-09T13:23:37;21.30;99.90
21744;DHT22;11034;48.556;9.342;2022-09-09T13:26:19;21.10;99.90
21744;DHT22;11034;48.556;9.342;2022-09-09T13:28:52;21.00;99.90
21744;DHT22;11034;48.556;9.342;2022-09-09T13:31:29;21.00;99.90
21744;DHT22;11034;48.556;9.342;2022-09-09T13:34:11;21.10;99.90
21744;DHT22;11034;48.556;9.342;2022-09-09T13:36:40;21.00;99.90
21744;DHT22;11034;48.556;9.342;2022-09-09T13:39:16;21.00;99.90
21744;DHT22;11034;48.556;9.342;2022-09-09T13:41:47;21.00;99.90
21744;DHT22;11034;48.556;9.342;2022-09-09T13:44:21;20.90;99.90
21744;DHT22;11034;48.556;9.342;2022-09-09T13:47:03;20.80;99.90
21744;DHT22;11034;48.556;9.342;2022-09-09T13:49:38;20.80;99.90
21744;DHT22;11034;48.556;9.342;2022-09-09T13:52:10;20.70;99.90
21744;DHT22;11034;48.556;9.342;2022-09-09T13:54:49;20.60;99.90
21744;DHT22;11034;48.556;9.342;2022-09-09T13:57:22;20.50;99.90
21744;DHT22;11034;48.556;9.342;2022-09-09T13:59:53;20.60;99.90
21744;DHT22;11034;48.556;9.342;2022-09-09T14:02:36;20.70;99.90
21744;DHT22;11034;48.556;9.342;2022-09-09T14:05:07;20.70;99.90
21744;DHT22;11034;48.556;9.342;2022-09-09T14:07:35;20.70;99.90
21744;DHT22;11034;48.556;9.342;2022-09-09T14:10:09;20.70;99.90
21744;DHT22;11034;48.556;9.342;2022-09-09T14:12:38;20.80;99.90
21744;DHT22;11034;48.556;9.342;2022-09-09T14:15:09;20.80;99.90
21744;DHT22;11034;48.556;9.342;2022-09-09T14:17:38;20.70;99.90
21744;DHT22;11034;48.556;9.342;2022-09-09T14:20:07;20.70;99.90
21744;DHT22;11034;48.556;9.342;2022-09-09T14:22:42;20.70;99.90
21744;DHT22;11034;48.556;9.342;2022-09-09T14:25:12;20.80;99.90
21744;DHT22;11034;48.556;9.342;2022-09-09T14:27:46;20.80;99.90
21744;DHT22;11034;48.556;9.342;2022-09-09T14:30:15;20.90;99.90
21744;DHT22;11034;48.556;9.342;2022-09-09T14:32:43;20.90;99.90
21744;DHT22;11034;48.556;9.342;2022-09-09T14:35:14;20.90;99.90
21744;DHT22;11034;48.556;9.342;2022-09-09T14:37:45;20.90;99.90
21744;DHT22;11034;48.556;9.342;2022-09-09T14:40:17;20.80;99.90
21744;DHT22;11034;48.556;9.342;2022-09-09T14:42:47;20.90;99.90
21744;DHT22;11034;48.556;9.342;2022-09-09T14:45:20;20.90;99.90
21744;DHT22;11034;48.556;9.342;2022-09-09T14:47:51;21.00;99.90
21744;DHT22;11034;48.556;9.342;2022-09-09T14:50:23;20.90;99.90
21744;DHT22;11034;48.556;9.342;2022-09-09T14:52:51;20.70;99.90
21744;DHT22;11034;48.556;9.342;2022-09-09T14:55:20;20.80;99.90
21744;DHT22;11034;48.556;9.342;2022-09-09T14:57:50;20.90;99.90
21744;DHT22;11034;48.556;9.342;2022-09-09T15:00:19;21.00;99.90
21744;DHT22;11034;48.556;9.342;2022-09-09T15:02:52;21.10;99.90
21744;DHT22;11034;48.556;9.342;2022-09-09T15:05:25;21.10;99.90
21744;DHT22;11034;48.556;9.342;2022-09-09T15:08:02;21.20;99.90
21744;DHT22;11034;48.556;9.342;2022-09-09T15:10:34;21.20;99.90
21744;DHT22;11034;48.556;9.342;2022-09-09T15:13:04;21.10;99.90
21744;DHT22;11034;48.556;9.342;2022-09-09T15:15:33;20.80;99.90
21744;DHT22;11034;48.556;9.342;2022-09-09T15:18:02;20.60;99.90
21744;DHT22;11034;48.556;9.342;2022-09-09T15:20:32;20.50;99.90
21744;DHT22;11034;48.556;9.342;2022-09-09T15:23:22;20.40;99.90
21744;DHT22;11034;48.556;9.342;2022-09-09T15:25:52;20.30;99.90
21744;DHT22;11034;48.556;9.342;2022-09-09T15:28:20;20.30;99.90
21744;DHT22;11034;48.556;9.342;2022-09-09T15:30:49;20.20;99.90
21744;DHT22;11034;48.556;9.342;2022-09-09T15:33:19;20.30;99.90
21744;DHT22;11034;48.556;9.342;2022-09-09T15:35:48;20.50;99.90
21744;DHT22;11034;48.556;9.342;2022-09-09T15:38:18;20.70;99.90
21744;DHT22;11034;48.556;9.342;2022-09-09T15:40:54;20.70;99.90
21744;DHT22;11034;48.556;9.342;2022-09-09T15:43:23;20.50;99.90
21744;DHT22;11034;48.556;9.342;2022-09-09T15:45:57;20.20;99.90
21744;DHT22;11034;48.556;9.342;2022-09-09T15:48:31;19.90;99.90
21744;DHT22;11034;48.556;9.342;2022-09-09T15:51:02;19.70;99.90
21744;DHT22;11034;48.556;9.342;2022-09-09T15:53:46;19.60;99.90
21744;DHT22;11034;48.556;9.342;2022-09-09T15:56:18;19.70;99.90
21744;DHT22;11034;48.556;9.342;2022-09-09T15:58:46;19.70;99.90
21744;DHT22;11034;48.556;9.342;2022-09-09T16:01:14;19.70;99.90
21744;DHT22;11034;48.556;9.342;2022-09-09T16:03:43;19.60;99.90
21744;DHT22;11034;48.556;9.342;2022-09-09T16:06:14;19.50;99.90
21744;DHT22;11034;48.556;9.342;2022-09-09T16:08:47;19.40;99.90
21744;DHT22;11034;48.556;9.342;2022-09-09T16:11:19;19.30;99.90
21744;DHT22;11034;48.556;9.342;2022-09-09T16:13:49;19.20;99.90
21744;DHT22;11034;48.556;9.342;2022-09-09T16:16:19;19.10;99.90